Rapatee, Illinois
Current Conditions -  °F | °C
As of 9:35 AM on Saturday 20 Dec 2014 (Local Time) from KGBG Reporting Station
Overcast Overcast  
Wind Chill: 26°   Ceiling: 3200
Heat Index: 31°   Visibility: 7mi
Dew Point: 27°   Wind: 5mph
Humidity: 84%   Direction: 130°SE
Pressure: 30.25"   Gusts: NA
Location:  40.6713°N, 90.2556°W
Report Text: KGBG 201535Z AUTO 13004KT 7SM OVC032 M01/M03 A3025 RMK AO2 T10061030
Loading
Personal Weather Stations






























Interactive Weather Map New forecast layout! Learn more

10-Day Weather Forecast

Advertisements
Track Severe Weather on mobile